< < Back
Terminal Aerodrome Forecast


Current Version              Previous Versions:   1  2  3  4  5  6  7  8  9  

Terminal Aerodrome Forecast

499
FTUS42 KFFC 230046 AAA
TAFCSG
TAF AMD
KCSG 230046Z 2301/2324 10009KT P6SM -RA BKN035
     FM230200 08008KT P6SM -RA OVC018
     FM230400 07008KT 4SM -RA BR OVC007
     FM231400 10010KT 2SM SHRA BR OVC007 PROB30 2315/2319 2SM TSRA
      OVC015CB
     FM232100 16012KT 2SM SHRA BR OVC009
     FM232300 20012G18KT 4SM BR BKN012=



Latest METAR

323
SAUS70 KWBC 230200
MTRCSG
METAR KCSG 230151Z AUTO 10009KT 10SM OVC028 13/09 A3021 RMK AO2 RAE49
SLP230 P0000 T01280089


USA.gov is the U.S. government's official web portal to all federal, state and local government web resources and services.